16:37
Airports
Links
Donate
Help keep this website running!
PayPal
Bitcoin
METAR
LICJ 231620Z 04015KT CAVOK 23/14 Q1020
Current Weather Conditions at LICJ
VFR 16:20:00 23-09-17
Altimeter:30.12 hg
Temp:23.0°c 73°f
Dew point:14.0°c 57°f
Wind:15 knots, 17.3 mph, 8 m/s, from 40°
Visibility:6.21 statute miles
(CAVOK)
Past METAR reports
VFR 15:50:00 23-09-17
Altimeter:30.12 hg
Temp:24.0°c 75°f
Dew point:14.0°c 57°f
Wind:18 knots, 20.7 mph, 9 m/s, from 40°
Visibility:6.21 statute miles
(CAVOK)
LICJ 231550Z 04018KT CAVOK 24/14 Q1020
VFR 15:20:00 23-09-17
Altimeter:30.12 hg
Temp:24.0°c 75°f
Dew point:14.0°c 57°f
Wind:17 knots, 19.6 mph, 9 m/s, from 40°
Visibility:6.21 statute miles
(CAVOK)
LICJ 231520Z 04017KT CAVOK 24/14 Q1020
VFR 14:50:00 23-09-17
Altimeter:30.12 hg
Temp:24.0°c 75°f
Dew point:14.0°c 57°f
Wind:17 knots, 19.6 mph, 9 m/s, from 30°
Visibility:6.21 statute miles
(CAVOK)
LICJ 231450Z 03017KT CAVOK 24/14 Q1020
VFR 14:20:00 23-09-17
Altimeter:30.12 hg
Temp:24.0°c 75°f
Dew point:14.0°c 57°f
Wind:15 knots, 17.3 mph, 8 m/s, from 30°
Visibility:6.21 statute miles
(CAVOK)
LICJ 231420Z 03015KT CAVOK 24/14 Q1020
VFR 13:50:00 23-09-17
Altimeter:30.12 hg
Temp:24.0°c 75°f
Dew point:14.0°c 57°f
Wind:14 knots, 16.1 mph, 7 m/s, from 30°
Visibility:6.21 statute miles
(CAVOK)
LICJ 231350Z 03014KT CAVOK 24/14 Q1020
VFR 13:20:00 23-09-17
Altimeter:30.12 hg
Temp:24.0°c 75°f
Dew point:14.0°c 57°f
Wind:13 knots, 15 mph, 7 m/s, from 30°
Visibility:6.21 statute miles
(CAVOK)
LICJ 231320Z 03013KT CAVOK 24/14 Q1020
TAF
TAF LICJ 231100Z 2312/2412 06012KT 9999 SCT030 BECMG 2317/2319 19013KT TEMPO 2400/2409 3000 TSRA
Forecast at LICJ
12:00 23-09-17 to 17:00 23-09-17
Wind:12 Knots from 60°
Visibility:6.21 statute miles
3000SCT Scattered
BECMG 17:00 23-09-17 to 12:00 24-09-17
Wind:13 Knots from 190°
Visibility:6.21 statute miles
3000SCT Scattered
TEMPO 00:00 24-09-17 to 09:00 24-09-17
TSRA
Visibility:1.86 statute miles